Time;durP1;ratioP1;P1;durP2;ratioP2;P2;SDS_P1;SDS_P2;PMS_P1;PMS_P2;Temp;Humidity;BMP_temperature;BMP_pressure;BME280_temperature;BME280_humidity;BME280_pressure;Samples;Min_cycle;Max_cycle;Signal;HPM_P1;HPM_P2
2023/12/13 00:01:51;;;;;;;17.10;6.80;;;;;;;6.12;100.00;99156.56;5073826;28;20254;-76
2023/12/13 00:04:23;;;;;;;17.67;7.73;;;;;;;6.13;100.00;99150.22;5073796;28;20182;-76
2023/12/13 00:06:53;;;;;;;17.37;7.20;;;;;;;6.13;100.00;99144.91;5073751;28;20205;-77
2023/12/13 00:09:21;;;;;;;14.77;7.17;;;;;;;6.13;100.00;99144.91;5073801;28;20628;-77
2023/12/13 00:11:50;;;;;;;15.23;6.97;;;;;;;6.13;100.00;99147.56;5073666;28;20248;-76
2023/12/13 00:14:19;;;;;;;14.17;7.20;;;;;;;6.14;100.00;99146.59;5073646;28;20229;-76
2023/12/13 00:16:48;;;;;;;16.23;7.33;;;;;;;6.13;100.00;99138.81;5073711;28;20232;-76
2023/12/13 00:19:16;;;;;;;13.97;7.40;;;;;;;6.14;100.00;99146.59;5073599;28;20205;-76
2023/12/13 00:21:45;;;;;;;13.63;6.83;;;;;;;6.14;100.00;99151.91;5073487;28;20304;-76
2023/12/13 00:24:15;;;;;;;18.37;7.97;;;;;;;6.13;100.00;99142.25;5073523;28;20237;-76
2023/12/13 00:26:44;;;;;;;15.37;7.20;;;;;;;6.13;100.00;99140.44;5073550;28;20303;-76
2023/12/13 00:29:12;;;;;;;22.20;8.10;;;;;;;6.13;100.00;99139.59;5073486;28;20300;-76
2023/12/13 00:31:41;;;;;;;17.83;7.53;;;;;;;6.13;100.00;99139.59;5073360;28;20227;-76
2023/12/13 00:34:09;;;;;;;16.27;7.63;;;;;;;6.13;100.00;99138.81;5073023;28;20230;-76
2023/12/13 00:36:38;;;;;;;21.87;7.00;;;;;;;6.13;100.00;99136.16;5073419;28;20213;-76
2023/12/13 00:39:08;;;;;;;14.93;6.73;;;;;;;6.13;100.00;99142.25;5073403;28;20627;-76
2023/12/13 00:41:37;;;;;;;16.40;7.23;;;;;;;6.13;100.00;99134.28;5078360;28;20576;-76
2023/12/13 00:44:06;;;;;;;15.93;7.77;;;;;;;6.13;100.00;99131.63;5080030;28;20198;-76
2023/12/13 00:46:34;;;;;;;17.00;7.87;;;;;;;6.12;100.00;99116.72;5080017;28;20299;-76
2023/12/13 00:49:03;;;;;;;16.60;7.33;;;;;;;6.11;100.00;99120.38;5079605;28;20724;-76
2023/12/13 00:51:32;;;;;;;14.20;8.17;;;;;;;6.11;100.00;99120.38;5079803;28;20259;-76
2023/12/13 00:54:00;;;;;;;18.10;7.87;;;;;;;6.10;100.00;99108.91;5079799;28;20320;-76
2023/12/13 00:56:30;;;;;;;16.77;7.17;;;;;;;6.10;100.00;99114.22;5079611;28;20686;-76
2023/12/13 00:59:00;;;;;;;14.57;7.27;;;;;;;6.10;100.00;99114.22;5079933;28;20224;-76
2023/12/13 01:01:29;;;;;;;14.20;6.50;;;;;;;6.11;100.00;99112.41;5079952;28;20299;-76
2023/12/13 01:03:57;;;;;;;17.10;7.77;;;;;;;6.09;100.00;99101.97;5079759;28;20592;-76
2023/12/13 01:06:26;;;;;;;13.67;7.83;;;;;;;6.09;100.00;99111.75;5079780;28;20209;-76
2023/12/13 01:08:54;;;;;;;18.57;7.70;;;;;;;6.09;100.00;99114.41;5079792;28;20213;-76
2023/12/13 01:11:24;;;;;;;18.33;8.73;;;;;;;6.09;100.00;99117.06;5079704;28;20288;-76
2023/12/13 01:13:52;;;;;;;15.00;7.53;;;;;;;6.08;100.00;99112.75;5079389;28;20256;-76
2023/12/13 01:16:22;;;;;;;21.47;8.20;;;;;;;6.05;100.00;99111.25;5079407;28;20209;-76
2023/12/13 01:18:51;;;;;;;15.03;7.23;;;;;;;6.06;100.00;99106.78;5079715;28;20209;-76
2023/12/13 01:21:20;;;;;;;12.67;7.23;;;;;;;6.03;100.00;99109.75;5079699;28;20294;-75
2023/12/13 01:23:48;;;;;;;15.37;7.83;;;;;;;6.02;100.00;99100.97;5079627;28;20224;-75
2023/12/13 01:26:17;;;;;;;19.73;8.77;;;;;;;6.00;100.00;99105.63;5079511;28;20376;-75
2023/12/13 01:28:45;;;;;;;19.60;8.10;;;;;;;6.00;100.00;99102.13;5079327;28;20209;-75
2023/12/13 01:31:14;;;;;;;24.57;8.83;;;;;;;6.00;100.00;99107.44;5079262;28;20670;-75
2023/12/13 01:33:44;;;;;;;15.23;8.60;;;;;;;5.98;100.00;99114.75;5078972;28;20644;-75
2023/12/13 01:36:13;;;;;;;15.20;8.07;;;;;;;5.96;100.00;99120.22;5079255;28;20209;-75
2023/12/13 01:38:41;;;;;;;19.10;8.93;;;;;;;5.97;100.00;99107.78;5079222;28;20746;-75
2023/12/13 01:41:10;;;;;;;18.07;9.43;;;;;;;5.96;100.00;99111.44;5079556;28;20289;-75
2023/12/13 01:43:42;;;;;;;14.63;7.93;;;;;;;5.95;100.00;99110.63;5079465;28;20225;-75
2023/12/13 01:46:13;;;;;;;18.10;8.13;;;;;;;5.95;100.00;99107.13;5079497;28;20210;-75
2023/12/13 01:48:43;;;;;;;14.80;8.00;;;;;;;5.94;100.00;99118.75;5079501;28;20190;-76
2023/12/13 01:51:12;;;;;;;17.17;8.67;;;;;;;5.94;100.00;99118.75;5079444;28;20278;-76
2023/12/13 01:53:42;;;;;;;16.40;8.40;;;;;;;5.93;100.00;99114.44;5075053;28;20321;-76
2023/12/13 01:56:12;;;;;;;17.60;8.63;;;;;;;5.93;100.00;99114.44;5076222;28;20307;-75
2023/12/13 01:58:41;;;;;;;16.63;8.20;;;;;;;5.93;100.00;99109.13;5076167;28;20237;-75
2023/12/13 02:01:10;;;;;;;14.50;7.87;;;;;;;5.93;100.00;99103.81;5076105;28;20205;-75
2023/12/13 02:03:40;;;;;;;17.37;8.43;;;;;;;5.92;100.00;99096.84;5076005;28;20260;-75
2023/12/13 02:06:10;;;;;;;17.23;8.37;;;;;;;5.91;100.00;99098.69;5076028;28;20209;-75
2023/12/13 02:08:39;;;;;;;14.60;8.60;;;;;;;5.89;100.00;99095.34;5075684;28;20251;-75
2023/12/13 02:11:07;;;;;;;14.10;7.60;;;;;;;5.90;100.00;99097.00;5075921;28;20206;-75
2023/12/13 02:13:36;;;;;;;13.83;7.87;;;;;;;5.89;100.00;99100.66;5075450;28;20229;-75
2023/12/13 02:16:06;;;;;;;14.63;8.33;;;;;;;5.89;100.00;99103.31;5075544;28;20259;-75
2023/12/13 02:18:34;;;;;;;15.23;8.07;;;;;;;5.90;100.00;99101.50;5075813;28;20210;-75
2023/12/13 02:21:03;;;;;;;20.03;9.33;;;;;;;5.89;100.00;99100.66;5075733;28;20216;-75
2023/12/13 02:23:33;;;;;;;20.07;9.37;;;;;;;5.89;100.00;99097.22;5075655;28;20230;-75
2023/12/13 02:26:05;;;;;;;17.33;8.97;;;;;;;5.90;100.00;99102.34;5075630;28;20240;-75
2023/12/13 02:28:33;;;;;;;21.27;9.90;;;;;;;5.90;100.00;99096.19;5075673;28;20189;-75
2023/12/13 02:31:03;;;;;;;15.13;9.33;;;;;;;5.90;100.00;99096.19;5075528;28;20208;-75
2023/12/13 02:33:32;;;;;;;18.63;9.33;;;;;;;5.90;100.00;99089.06;5075048;28;20260;-75
2023/12/13 02:36:03;;;;;;;18.93;9.87;;;;;;;5.90;100.00;99090.88;5075156;28;20679;-75
2023/12/13 02:38:33;;;;;;;16.27;8.93;;;;;;;5.90;100.00;99090.88;5075467;28;20193;-75
2023/12/13 02:41:02;;;;;;;19.70;9.83;;;;;;;5.88;100.00;99093.72;5075372;28;20202;-75
2023/12/13 02:43:31;;;;;;;21.00;9.93;;;;;;;5.87;100.00;99088.56;5075242;28;20229;-75
2023/12/13 02:46:00;;;;;;;17.60;10.17;;;;;;;5.88;100.00;99083.09;5075249;28;20236;-75
2023/12/13 02:48:28;;;;;;;19.70;10.23;;;;;;;5.88;100.00;99087.56;5075268;28;20555;-75
2023/12/13 02:50:57;;;;;;;21.07;11.23;;;;;;;5.86;100.00;99084.25;5075091;28;20692;-75
2023/12/13 02:53:26;;;;;;;22.57;11.07;;;;;;;5.87;100.00;99085.91;5075032;28;20312;-75
2023/12/13 02:55:56;;;;;;;17.40;10.00;;;;;;;5.87;100.00;99091.22;5074936;28;20235;-75
2023/12/13 02:58:25;;;;;;;17.87;10.03;;;;;;;5.88;100.00;99092.88;5074996;28;20205;-75
2023/12/13 03:00:54;;;;;;;19.23;10.60;;;;;;;5.88;100.00;99092.88;5074676;28;20605;-75
2023/12/13 03:03:23;;;;;;;18.43;9.97;;;;;;;5.87;100.00;99086.75;5074128;28;20240;-75
2023/12/13 03:05:51;;;;;;;18.07;9.93;;;;;;;5.88;100.00;99087.56;5074395;28;20300;-76
2023/12/13 03:08:20;;;;;;;14.70;9.80;;;;;;;5.90;100.00;99093.53;5074831;28;20207;-76
2023/12/13 03:10:48;;;;;;;15.90;8.63;;;;;;;5.89;100.00;99092.69;5074748;28;20240;-76
2023/12/13 03:13:18;;;;;;;17.13;9.30;;;;;;;5.89;100.00;99091.91;5074273;28;20711;-75
2023/12/13 03:15:47;;;;;;;19.17;10.10;;;;;;;5.89;100.00;99083.94;5074611;28;20588;-75
2023/12/13 03:18:15;;;;;;;16.17;9.83;;;;;;;5.89;100.00;99090.03;5074631;28;20286;-75
2023/12/13 03:20:44;;;;;;;18.10;10.23;;;;;;;5.89;100.00;99089.22;5074550;28;20235;-75
2023/12/13 03:23:13;;;;;;;18.00;10.60;;;;;;;5.89;100.00;99095.34;5074514;28;20312;-76
2023/12/13 03:25:41;;;;;;;20.40;11.20;;;;;;;5.87;100.00;99097.34;5074559;28;20308;-76
2023/12/13 03:28:10;;;;;;;22.30;12.43;;;;;;;5.87;100.00;99093.88;5074099;28;20585;-76
2023/12/13 03:30:41;;;;;;;22.13;11.47;;;;;;;5.85;100.00;99091.38;5074057;28;20216;-76
2023/12/13 03:33:09;;;;;;;19.77;12.70;;;;;;;5.84;100.00;99086.22;5074055;28;20229;-76
2023/12/13 03:35:38;;;;;;;19.77;11.73;;;;;;;5.85;100.00;99087.88;5074252;28;20320;-76
2023/12/13 03:38:07;;;;;;;22.13;13.20;;;;;;;5.84;100.00;99086.22;5074232;28;20292;-76
2023/12/13 03:40:36;;;;;;;18.97;11.17;;;;;;;5.85;100.00;99079.91;5074186;28;20305;-76
2023/12/13 03:43:05;;;;;;;21.17;12.17;;;;;;;5.86;100.00;99081.59;5074066;28;20252;-76
2023/12/13 03:45:33;;;;;;;22.97;11.57;;;;;;;5.86;100.00;99073.63;5073814;28;20663;-76
2023/12/13 03:48:03;;;;;;;19.63;11.83;;;;;;;5.85;100.00;99061.31;5074701;28;20229;-76
2023/12/13 03:50:32;;;;;;;23.03;12.20;;;;;;;5.86;100.00;99074.44;5073958;28;20209;-76
2023/12/13 03:53:00;;;;;;;20.80;11.37;;;;;;;5.86;100.00;99065.66;5073591;28;20312;-76
2023/12/13 03:55:29;;;;;;;22.43;11.43;;;;;;;5.87;100.00;99068.16;5073516;28;20672;-76
2023/12/13 03:57:58;;;;;;;17.13;10.23;;;;;;;5.86;100.00;99070.97;5073856;28;20254;-76
2023/12/13 04:00:26;;;;;;;20.37;11.77;;;;;;;5.87;100.00;99069.97;5073948;28;20212;-76
2023/12/13 04:02:55;;;;;;;17.20;11.20;;;;;;;5.87;100.00;99069.97;5073757;28;20253;-76
2023/12/13 04:05:25;;;;;;;20.13;10.37;;;;;;;5.88;100.00;99074.28;5073779;28;20206;-76
2023/12/13 04:07:53;;;;;;;19.37;11.00;;;;;;;5.88;100.00;99061.84;5074170;28;20211;-76
2023/12/13 04:10:22;;;;;;;18.93;10.40;;;;;;;5.88;100.00;99068.97;5073776;28;20202;-76
2023/12/13 04:12:51;;;;;;;14.73;10.00;;;;;;;5.88;100.00;99066.31;5073343;28;20232;-76
2023/12/13 04:15:19;;;;;;;16.83;10.23;;;;;;;5.88;100.00;99058.34;5072875;28;20777;-76
2023/12/13 04:17:51;;;;;;;18.60;10.60;;;;;;;5.88;100.00;99071.63;5073612;28;20205;-76
2023/12/13 04:20:19;;;;;;;15.63;10.23;;;;;;;5.88;100.00;99063.66;5073569;28;20555;-76
2023/12/13 04:22:50;;;;;;;16.17;10.60;;;;;;;5.89;100.00;99068.00;5073225;28;20643;-76
2023/12/13 04:25:18;;;;;;;15.40;10.60;;;;;;;5.88;100.00;99072.47;5073508;28;20190;-76
2023/12/13 04:27:47;;;;;;;16.03;9.50;;;;;;;5.89;100.00;99068.00;5073505;28;20213;-76
2023/12/13 04:30:16;;;;;;;16.43;10.73;;;;;;;5.90;100.00;99066.97;5073217;28;20666;-76
2023/12/13 04:32:45;;;;;;;15.90;11.03;;;;;;;5.90;100.00;99067.81;5073126;28;20245;-76
2023/12/13 04:35:13;;;;;;;14.97;10.73;;;;;;;5.89;100.00;99063.47;5073389;28;20225;-76
2023/12/13 04:37:42;;;;;;;15.87;10.07;;;;;;;5.90;100.00;99073.13;5073420;28;20205;-76
2023/12/13 04:40:13;;;;;;;14.57;9.87;;;;;;;5.90;100.00;99067.81;5073396;28;20275;-76
2023/12/13 04:42:41;;;;;;;15.50;9.97;;;;;;;5.90;100.00;99066.97;5073376;28;20253;-76
2023/12/13 04:45:10;;;;;;;16.33;10.80;;;;;;;5.90;100.00;99070.47;5073346;28;20292;-76
2023/12/13 04:47:39;;;;;;;16.90;10.73;;;;;;;5.91;100.00;99065.97;5073311;28;20204;-76
2023/12/13 04:50:08;;;;;;;16.33;10.73;;;;;;;5.91;100.00;99065.97;5073345;28;20248;-76
2023/12/13 04:52:37;;;;;;;10.90;9.63;;;;;;;5.91;100.00;99068.63;5073137;28;20313;-76
2023/12/13 04:55:06;;;;;;;14.73;10.23;;;;;;;5.90;100.00;99065.16;5073158;28;20225;-76
2023/12/13 04:57:36;;;;;;;14.00;10.23;;;;;;;5.90;100.00;99061.66;5072932;28;20244;-76
2023/12/13 05:00:07;;;;;;;15.43;9.87;;;;;;;5.91;100.00;99066.81;5072879;28;20584;-76
2023/12/13 05:02:36;;;;;;;14.53;10.33;;;;;;;5.90;100.00;99065.16;5072818;28;20229;-76
2023/12/13 05:05:05;;;;;;;15.97;10.33;;;;;;;5.90;100.00;99066.97;5073156;28;20205;-76
2023/12/13 05:07:34;;;;;;;15.00;10.67;;;;;;;5.90;100.00;99059.00;5072774;28;20205;-76
2023/12/13 05:10:04;;;;;;;16.20;10.30;;;;;;;5.91;100.00;99060.66;5072836;28;20725;-76
2023/12/13 05:12:32;;;;;;;15.03;11.17;;;;;;;5.90;100.00;99062.50;5072719;28;20225;-76
2023/12/13 05:15:03;;;;;;;14.23;9.87;;;;;;;5.90;100.00;99059.84;5072959;28;20228;-76
2023/12/13 05:17:32;;;;;;;15.27;10.37;;;;;;;5.90;100.00;99056.34;5073080;28;20201;-76
2023/12/13 05:20:03;;;;;;;13.57;10.37;;;;;;;5.89;100.00;99057.38;5073024;28;20201;-76
2023/12/13 05:22:32;;;;;;;16.93;11.50;;;;;;;5.90;100.00;99064.31;5072872;28;20225;-76
2023/12/13 05:25:01;;;;;;;14.90;10.23;;;;;;;5.89;100.00;99060.81;5072642;28;20576;-76
2023/12/13 05:27:29;;;;;;;13.43;10.17;;;;;;;5.90;100.00;99059.00;5073976;28;20251;-76
2023/12/13 05:29:58;;;;;;;17.33;11.27;;;;;;;5.90;100.00;99059.00;5076605;28;20284;-76
2023/12/13 05:32:28;;;;;;;15.73;10.50;;;;;;;5.90;100.00;99065.16;5076385;28;20268;-76
2023/12/13 05:34:57;;;;;;;16.37;11.13;;;;;;;5.88;100.00;99061.00;5076059;28;20209;-76
2023/12/13 05:37:25;;;;;;;14.37;11.20;;;;;;;5.89;100.00;99066.13;5076004;28;20724;-76
2023/12/13 05:39:54;;;;;;;23.27;15.23;;;;;;;5.90;100.00;99065.16;5076345;28;20288;-75
2023/12/13 05:42:22;;;;;;;17.80;12.97;;;;;;;5.89;100.00;99066.13;5076372;28;20312;-75
2023/12/13 05:44:51;;;;;;;22.13;15.90;;;;;;;5.90;100.00;99061.66;5076142;28;20567;-75
2023/12/13 05:47:20;;;;;;;19.63;14.50;;;;;;;5.89;100.00;99063.47;5076406;28;20237;-75
2023/12/13 05:49:50;;;;;;;18.00;14.00;;;;;;;5.91;100.00;99065.97;5076311;28;20296;-75
2023/12/13 05:52:19;;;;;;;20.53;14.13;;;;;;;5.91;100.00;99066.81;5076226;28;20253;-75
2023/12/13 05:54:47;;;;;;;19.80;12.77;;;;;;;5.91;100.00;99060.66;5075918;28;20731;-75
2023/12/13 05:57:16;;;;;;;13.53;11.20;;;;;;;5.92;100.00;99062.34;5075794;28;20793;-75
2023/12/13 05:59:44;;;;;;;15.17;11.67;;;;;;;5.93;100.00;99077.25;5076207;28;20215;-75
2023/12/13 06:02:13;;;;;;;16.30;11.90;;;;;;;5.93;100.00;99063.97;5076134;28;20229;-75
2023/12/13 06:04:43;;;;;;;13.90;11.20;;;;;;;5.94;100.00;99068.28;5076083;28;20300;-75
2023/12/13 06:07:15;;;;;;;12.90;10.33;;;;;;;5.93;100.00;99061.31;5076158;28;20685;-75
2023/12/13 06:09:44;;;;;;;16.57;12.23;;;;;;;5.93;100.00;99061.31;5075687;28;20229;-75
2023/12/13 06:12:16;;;;;;;15.57;12.53;;;;;;;5.94;100.00;99077.09;5075870;28;20313;-75
2023/12/13 06:14:44;;;;;;;14.50;11.40;;;;;;;5.94;100.00;99071.78;5076027;28;20213;-75
2023/12/13 06:17:13;;;;;;;14.63;10.73;;;;;;;5.95;100.00;99072.59;5075526;28;20229;-75
2023/12/13 06:19:42;;;;;;;12.40;10.27;;;;;;;5.96;100.00;99074.25;5075807;28;20292;-75
2023/12/13 06:22:12;;;;;;;15.10;10.93;;;;;;;5.96;100.00;99066.28;5075696;28;20240;-75
2023/12/13 06:24:42;;;;;;;12.90;10.23;;;;;;;5.97;100.00;99073.25;5075406;28;20669;-75
2023/12/13 06:27:10;;;;;;;14.87;10.40;;;;;;;5.98;100.00;99074.91;5075652;28;20296;-75
2023/12/13 06:29:39;;;;;;;14.37;10.53;;;;;;;5.98;100.00;99066.94;5075667;28;20296;-75
2023/12/13 06:32:07;;;;;;;15.17;11.07;;;;;;;5.98;100.00;99074.91;5075359;28;20225;-75
2023/12/13 06:34:36;;;;;;;17.20;11.57;;;;;;;5.98;100.00;99073.09;5075260;28;20189;-75
2023/12/13 06:37:06;;;;;;;16.20;12.23;;;;;;;5.99;100.00;99076.59;5075340;28;20282;-75
2023/12/13 06:39:34;;;;;;;14.30;11.73;;;;;;;6.00;100.00;99075.56;5075107;28;20201;-75
2023/12/13 06:42:05;;;;;;;14.97;11.50;;;;;;;6.00;100.00;99075.56;5074990;28;20316;-75
2023/12/13 06:44:34;;;;;;;19.37;13.27;;;;;;;6.01;100.00;99074.56;5075424;28;20272;-75
2023/12/13 06:47:03;;;;;;;15.47;11.90;;;;;;;6.00;100.00;99072.91;5075226;28;20293;-75
2023/12/13 06:49:34;;;;;;;14.50;11.63;;;;;;;6.01;100.00;99077.22;5074953;28;20639;-75
2023/12/13 06:52:03;;;;;;;13.90;11.43;;;;;;;6.01;100.00;99074.56;5075179;28;20231;-75
2023/12/13 06:54:31;;;;;;;13.93;10.57;;;;;;;6.01;100.00;99074.56;5075196;28;20205;-75
2023/12/13 06:57:01;;;;;;;15.70;10.83;;;;;;;6.02;100.00;99070.94;5075103;28;20231;-75
2023/12/13 06:59:31;;;;;;;14.90;10.67;;;;;;;6.03;100.00;99077.88;5075122;28;20301;-75
2023/12/13 07:02:00;;;;;;;14.87;10.37;;;;;;;6.03;100.00;99081.38;5074664;28;20287;-75
2023/12/13 07:04:28;;;;;;;15.33;10.10;;;;;;;6.04;100.00;99075.06;5074618;28;20211;-75
2023/12/13 07:06:58;;;;;;;14.93;10.93;;;;;;;6.05;100.00;99083.88;5074896;28;20205;-75
2023/12/13 07:09:27;;;;;;;14.93;10.63;;;;;;;6.05;100.00;99078.53;5075007;28;20212;-75
2023/12/13 07:11:55;;;;;;;14.90;10.30;;;;;;;6.05;100.00;99079.38;5074706;28;20209;-75
2023/12/13 07:14:24;;;;;;;13.23;9.80;;;;;;;6.06;100.00;99088.19;5074772;28;20284;-75
2023/12/13 07:16:54;;;;;;;12.97;10.90;;;;;;;6.04;100.00;99088.34;5074279;28;20702;-75
2023/12/13 07:19:23;;;;;;;13.80;10.10;;;;;;;6.05;100.00;99084.69;5074330;28;20671;-75
2023/12/13 07:21:51;;;;;;;11.67;9.13;;;;;;;6.04;100.00;99085.69;5074535;28;20207;-75
2023/12/13 07:24:20;;;;;;;11.73;9.37;;;;;;;6.05;100.00;99095.31;5074523;28;20247;-75
2023/12/13 07:26:48;;;;;;;11.27;9.47;;;;;;;6.04;100.00;99090.16;5074455;28;20291;-75
2023/12/13 07:29:17;;;;;;;11.97;9.83;;;;;;;6.04;100.00;99098.13;5074435;28;20266;-75
2023/12/13 07:31:45;;;;;;;13.10;9.80;;;;;;;6.04;100.00;99098.97;5073979;28;20209;-75
2023/12/13 07:34:18;;;;;;;14.53;9.80;;;;;;;6.03;100.00;99096.47;5074035;28;20248;-75
2023/12/13 07:36:48;;;;;;;14.73;9.97;;;;;;;6.03;100.00;99092.00;5074256;28;20237;-75
2023/12/13 07:39:17;;;;;;;12.57;10.13;;;;;;;6.03;100.00;99097.31;5074265;28;20194;-75
2023/12/13 07:41:46;;;;;;;13.30;10.10;;;;;;;6.03;100.00;99096.47;5073779;28;20545;-62
2023/12/13 07:44:16;;;;;;;11.60;9.80;;;;;;;6.04;100.00;99106.09;5075155;28;20201;-72
2023/12/13 07:46:45;;;;;;;15.03;10.67;;;;;;;6.03;100.00;99104.44;5075571;28;20255;-72
2023/12/13 07:49:15;;;;;;;11.83;10.43;;;;;;;6.02;100.00;99100.16;5075071;28;20209;-72
2023/12/13 07:51:44;;;;;;;11.03;9.70;;;;;;;6.03;100.00;99104.44;5074620;28;20193;-72
2023/12/13 07:54:16;;;;;;;13.60;10.67;;;;;;;6.02;100.00;99111.59;5075142;28;20235;-72
2023/12/13 07:56:45;;;;;;;13.17;10.77;;;;;;;6.03;100.00;99110.59;5075183;28;20300;-72
2023/12/13 07:59:14;;;;;;;15.47;11.37;;;;;;;6.04;100.00;99106.94;5075278;28;20212;-72
2023/12/13 08:01:42;;;;;;;13.47;10.40;;;;;;;6.03;100.00;99107.09;5075070;28;20579;-72
2023/12/13 08:04:11;;;;;;;13.07;11.40;;;;;;;6.04;100.00;99111.41;5074904;28;20252;-72
2023/12/13 08:06:41;;;;;;;19.37;14.13;;;;;;;6.04;100.00;99109.59;5075233;28;20288;-72
2023/12/13 08:09:10;;;;;;;22.90;16.93;;;;;;;6.06;100.00;99109.44;5074738;28;20208;-72
2023/12/13 08:11:39;;;;;;;25.33;17.20;;;;;;;6.05;100.00;99113.09;5074742;28;20248;-72
2023/12/13 08:14:07;;;;;;;23.97;17.07;;;;;;;6.08;100.00;99112.75;5075420;28;20205;-72
2023/12/13 08:16:36;;;;;;;19.30;15.17;;;;;;;6.09;100.00;99111.75;5074913;28;20209;-72
2023/12/13 08:19:05;;;;;;;20.27;15.37;;;;;;;6.10;100.00;99116.03;5074819;28;20201;-72
2023/12/13 08:21:40;;;;;;;21.17;15.83;;;;;;;6.11;100.00;99115.88;5074615;28;20205;-72
2023/12/13 08:24:11;;;;;;;21.70;16.47;;;;;;;6.12;100.00;99108.75;5074244;28;20197;-72
2023/12/13 08:26:39;;;;;;;22.70;16.50;;;;;;;6.13;100.00;99119.19;5074579;28;20200;-72
2023/12/13 08:29:08;;;;;;;23.03;16.60;;;;;;;6.15;100.00;99115.53;5074060;28;20213;-72
2023/12/13 08:31:37;;;;;;;20.83;16.03;;;;;;;6.16;100.00;99118.03;5073952;28;20663;-72
2023/12/13 08:34:06;;;;;;;15.13;13.37;;;;;;;6.18;100.00;99115.19;5073687;28;20749;-72
2023/12/13 08:36:35;;;;;;;15.57;12.97;;;;;;;6.20;100.00;99119.31;5073960;28;20205;-72
2023/12/13 08:39:03;;;;;;;19.27;13.13;;;;;;;6.22;100.00;99122.66;5073694;28;20313;-72
2023/12/13 08:41:33;;;;;;;16.20;12.13;;;;;;;6.23;100.00;99123.50;5073866;28;20279;-72
2023/12/13 08:44:02;;;;;;;15.17;11.70;;;;;;;6.25;100.00;99130.28;5073768;28;20312;-72
2023/12/13 08:46:30;;;;;;;16.93;13.17;;;;;;;6.26;100.00;99131.94;5073723;28;20255;-72
2023/12/13 08:48:59;;;;;;;13.73;11.90;;;;;;;6.28;100.00;99129.09;5073651;28;20197;-72
2023/12/13 08:51:28;;;;;;;14.07;12.30;;;;;;;6.29;100.00;99126.28;5073680;28;20209;-72
2023/12/13 08:53:56;;;;;;;15.60;12.20;;;;;;;6.32;100.00;99125.09;5073621;28;20268;-72
2023/12/13 08:56:25;;;;;;;14.40;12.83;;;;;;;6.34;100.00;99126.59;5073582;28;20296;-72
2023/12/13 08:58:54;;;;;;;18.73;15.70;;;;;;;6.36;100.00;99135.22;5073438;28;20310;-72
2023/12/13 09:01:24;;;;;;;20.67;15.60;;;;;;;6.37;100.00;99136.06;5074437;28;20262;-72
2023/12/13 09:03:56;;;;;;;20.70;15.80;;;;;;;6.40;100.00;99127.75;5077616;28;20233;-72
2023/12/13 09:06:24;;;;;;;23.70;15.07;;;;;;;6.40;100.00;99125.91;5077713;28;20284;-72
2023/12/13 09:08:53;;;;;;;22.03;15.10;;;;;;;6.45;100.00;99131.53;5077448;28;20228;-72
2023/12/13 09:11:22;;;;;;;19.37;14.03;;;;;;;6.46;100.00;99135.84;5077429;28;20213;-72
2023/12/13 09:13:51;;;;;;;27.17;13.80;;;;;;;6.48;100.00;99130.34;5077234;28;20311;-72
2023/12/13 09:16:21;;;;;;;20.53;14.87;;;;;;;6.50;100.00;99134.50;5077318;28;20288;-72
2023/12/13 09:18:49;;;;;;;24.13;14.47;;;;;;;6.52;100.00;99136.97;5077090;28;20229;-72
2023/12/13 09:21:18;;;;;;;20.90;14.23;;;;;;;6.54;100.00;99132.34;5077211;28;20208;-72
2023/12/13 09:23:46;;;;;;;23.57;16.63;;;;;;;6.57;100.00;99140.78;5077362;28;20259;-72
2023/12/13 09:26:16;;;;;;;21.90;15.27;;;;;;;6.57;100.00;99146.09;5077032;28;20209;-72
2023/12/13 09:28:44;;;;;;;26.33;15.93;;;;;;;6.59;100.00;99145.91;5077211;28;20297;-72
2023/12/13 09:31:13;;;;;;;17.53;14.40;;;;;;;6.63;100.00;99148.06;5076837;28;20679;-72
2023/12/13 09:33:43;;;;;;;20.33;14.70;;;;;;;6.64;100.00;99152.34;5076667;28;20291;-72
2023/12/13 09:36:12;;;;;;;25.60;14.63;;;;;;;6.65;100.00;99150.53;5076928;28;20209;-72
2023/12/13 09:38:41;;;;;;;22.27;15.50;;;;;;;6.70;100.00;99147.38;5076800;28;20279;-72
2023/12/13 09:41:10;;;;;;;20.77;13.83;;;;;;;6.71;100.00;99155.19;5076533;28;20645;-72
2023/12/13 09:43:42;;;;;;;23.73;15.30;;;;;;;6.73;100.00;99158.47;5076719;28;20333;-72
2023/12/13 09:46:17;;;;;;;23.73;14.57;;;;;;;6.75;100.00;99155.63;5076943;28;20571;-72
2023/12/13 09:48:47;;;;;;;18.40;13.47;;;;;;;6.77;100.00;99161.63;5076448;28;20639;-72
2023/12/13 09:51:19;;;;;;;20.07;13.53;;;;;;;6.80;100.00;99155.94;5076726;28;20198;-72
2023/12/13 09:53:50;;;;;;;19.43;13.47;;;;;;;6.82;100.00;99161.91;5076524;28;20230;-72
2023/12/13 09:56:19;;;;;;;17.43;12.43;;;;;;;6.84;100.00;99159.94;5076377;28;20240;-72
2023/12/13 09:58:48;;;;;;;15.67;12.40;;;;;;;6.88;100.00;99161.25;5076508;28;20225;-72
2023/12/13 10:01:18;;;;;;;19.60;13.17;;;;;;;6.91;100.00;99160.88;5076547;28;20209;-72
2023/12/13 10:03:48;;;;;;;19.37;12.63;;;;;;;6.92;100.00;99151.88;5076380;28;20321;-72
2023/12/13 10:06:17;;;;;;;16.77;11.93;;;;;;;6.95;100.00;99156.88;5076570;28;20201;-72
2023/12/13 10:08:54;;;;;;;22.60;14.53;;;;;;;6.98;100.00;99159.19;5076507;28;20201;-72
2023/12/13 10:11:23;;;;;;;16.00;13.03;;;;;;;7.01;100.00;99153.50;5076289;28;20189;-72
2023/12/13 10:13:52;;;;;;;18.07;14.17;;;;;;;7.03;100.00;99154.97;5077818;28;20320;-73
2023/12/13 10:16:21;;;;;;;17.70;13.17;;;;;;;7.04;100.00;99155.81;5077138;28;20201;-63
2023/12/13 10:18:51;;;;;;;19.03;14.67;;;;;;;7.06;100.00;99153.78;5076012;28;20303;-76
2023/12/13 10:21:19;;;;;;;24.67;17.03;;;;;;;7.05;100.00;99157.47;5075994;28;20201;-76
2023/12/13 10:23:48;;;;;;;21.97;14.80;;;;;;;7.05;100.00;99152.97;5075974;28;20221;-77
2023/12/13 10:26:17;;;;;;;18.73;13.10;;;;;;;7.05;100.00;99158.28;5076079;28;20255;-77
2023/12/13 10:28:46;;;;;;;18.07;13.07;;;;;;;7.07;100.00;99160.78;5075858;28;20351;-77
2023/12/13 10:31:14;;;;;;;17.40;12.10;;;;;;;7.06;100.00;99164.44;5075748;28;20205;-76
2023/12/13 10:33:43;;;;;;;16.67;11.30;;;;;;;7.07;100.00;99163.44;5075092;28;20753;-77
2023/12/13 10:36:13;;;;;;;13.40;10.30;;;;;;;7.06;100.00;99167.09;5075578;28;20454;-77
2023/12/13 10:38:44;;;;;;;14.93;10.90;;;;;;;7.06;100.00;99165.25;5075500;28;20210;-77
2023/12/13 10:41:15;;;;;;;12.83;10.03;;;;;;;7.07;100.00;99166.09;5076021;28;20273;-77
2023/12/13 10:43:45;;;;;;;15.97;9.70;;;;;;;7.07;100.00;99160.78;5076625;28;20275;-77
2023/12/13 10:46:17;;;;;;;14.73;9.27;;;;;;;7.07;100.00;99155.44;5075915;28;20726;-77
2023/12/13 10:48:47;;;;;;;14.47;9.40;;;;;;;7.09;100.00;99169.41;5076245;28;20549;-77
2023/12/13 10:51:18;;;;;;;13.90;9.03;;;;;;;7.10;100.00;99165.75;5075612;28;20228;-77
2023/12/13 10:53:47;;;;;;;13.70;8.93;;;;;;;7.09;100.00;99164.91;5075493;28;20221;-76
2023/12/13 10:56:16;;;;;;;13.63;9.20;;;;;;;7.10;100.00;99163.91;5075411;28;20201;-76
2023/12/13 10:58:45;;;;;;;14.50;9.13;;;;;;;7.11;100.00;99162.09;5074834;28;20221;-76
2023/12/13 11:01:16;;;;;;;12.20;8.50;;;;;;;7.10;100.00;99166.56;5075207;28;20201;-76
2023/12/13 11:03:48;;;;;;;13.67;8.50;;;;;;;7.11;100.00;99164.75;5074643;28;20229;-76
2023/12/13 11:06:20;;;;;;;12.10;8.40;;;;;;;7.11;100.00;99168.25;5075900;28;20602;-77
2023/12/13 11:08:48;;;;;;;13.70;8.50;;;;;;;7.13;100.00;99173.38;5074880;28;20208;-77
2023/12/13 11:11:18;;;;;;;11.47;7.70;;;;;;;7.12;100.00;99177.06;5074875;28;20307;-77
2023/12/13 11:13:48;;;;;;;13.73;8.60;;;;;;;7.12;100.00;99167.22;5074588;28;20257;-77
2023/12/13 11:16:18;;;;;;;10.33;8.17;;;;;;;7.15;100.00;99168.72;5074607;28;20205;-77
2023/12/13 11:18:49;;;;;;;12.00;8.33;;;;;;;7.16;100.00;99172.22;5074427;28;20610;-77
2023/12/13 11:21:28;;;;;;;11.63;8.43;;;;;;;7.16;100.00;99173.00;5075328;28;20208;-77
2023/12/13 11:24:00;;;;;;;10.63;6.63;;;;;;;7.17;100.00;99181.81;5075377;28;20311;-77
2023/12/13 11:26:28;;;;;;;11.60;6.43;;;;;;;7.16;100.00;99175.66;5073878;28;20198;-77
2023/12/13 11:28:57;;;;;;;10.03;6.30;;;;;;;7.17;100.00;99177.34;5074327;28;20672;-76